sensor_id;sensor_type;location;lat;lon;timestamp;pressure;altitude;pressure_sealevel;temperature;humidity
7264;BME280;3673;52.480;13.348;2023-06-10T00:01:39;101156.72;;;22.19;50.32
7264;BME280;3673;52.480;13.348;2023-06-10T00:04:06;101171.34;;;22.30;50.05
7264;BME280;3673;52.480;13.348;2023-06-10T00:06:33;101170.47;;;22.30;50.17
7264;BME280;3673;52.480;13.348;2023-06-10T00:09:02;101162.94;;;22.19;50.25
7264;BME280;3673;52.480;13.348;2023-06-10T00:11:31;101154.28;;;22.14;50.41
7264;BME280;3673;52.480;13.348;2023-06-10T00:13:58;101162.09;;;21.97;50.98
7264;BME280;3673;52.480;13.348;2023-06-10T00:16:26;101158.81;;;21.90;51.26
7264;BME280;3673;52.480;13.348;2023-06-10T00:18:53;101162.75;;;22.02;50.88
7264;BME280;3673;52.480;13.348;2023-06-10T00:21:26;101160.97;;;22.02;50.77
7264;BME280;3673;52.480;13.348;2023-06-10T00:23:52;101151.19;;;22.03;50.95
7264;BME280;3673;52.480;13.348;2023-06-10T00:26:21;101153.78;;;22.04;50.80
7264;BME280;3673;52.480;13.348;2023-06-10T00:28:48;101157.78;;;21.94;51.07
7264;BME280;3673;52.480;13.348;2023-06-10T00:31:15;101146.47;;;21.88;51.33
7264;BME280;3673;52.480;13.348;2023-06-10T00:33:44;101142.69;;;21.93;51.08
7264;BME280;3673;52.480;13.348;2023-06-10T00:36:11;101153.59;;;21.87;51.33
7264;BME280;3673;52.480;13.348;2023-06-10T00:38:37;101158.69;;;21.93;51.17
7264;BME280;3673;52.480;13.348;2023-06-10T00:41:06;101159.72;;;21.89;51.40
7264;BME280;3673;52.480;13.348;2023-06-10T00:43:32;101146.72;;;22.03;50.89
7264;BME280;3673;52.480;13.348;2023-06-10T00:45:59;101152.13;;;21.79;51.55
7264;BME280;3673;52.480;13.348;2023-06-10T00:48:27;101152.84;;;21.84;51.44
7264;BME280;3673;52.480;13.348;2023-06-10T00:50:55;101149.13;;;21.88;51.33
7264;BME280;3673;52.480;13.348;2023-06-10T00:53:23;101151.97;;;21.83;51.45
7264;BME280;3673;52.480;13.348;2023-06-10T00:55:50;101155.47;;;21.62;52.06
7264;BME280;3673;52.480;13.348;2023-06-10T00:58:17;101151.53;;;21.72;51.72
7264;BME280;3673;52.480;13.348;2023-06-10T01:00:45;101162.63;;;21.83;51.34
7264;BME280;3673;52.480;13.348;2023-06-10T01:03:12;101157.16;;;21.86;51.35
7264;BME280;3673;52.480;13.348;2023-06-10T01:05:40;101158.66;;;21.72;51.70
7264;BME280;3673;52.480;13.348;2023-06-10T01:08:17;101161.38;;;21.70;51.71
7264;BME280;3673;52.480;13.348;2023-06-10T01:10:51;101168.59;;;21.68;51.75
7264;BME280;3673;52.480;13.348;2023-06-10T01:13:20;101168.88;;;21.61;52.00
7264;BME280;3673;52.480;13.348;2023-06-10T01:15:49;101168.78;;;21.62;51.90
7264;BME280;3673;52.480;13.348;2023-06-10T01:18:16;101161.34;;;21.48;52.22
7264;BME280;3673;52.480;13.348;2023-06-10T01:20:44;101167.97;;;21.38;52.48
7264;BME280;3673;52.480;13.348;2023-06-10T01:23:13;101172.34;;;21.63;51.81
7264;BME280;3673;52.480;13.348;2023-06-10T01:25:42;101164.34;;;21.63;52.00
7264;BME280;3673;52.480;13.348;2023-06-10T01:28:17;101163.59;;;21.59;51.80
7264;BME280;3673;52.480;13.348;2023-06-10T01:30:59;101171.38;;;21.42;52.45
7264;BME280;3673;52.480;13.348;2023-06-10T01:33:29;101176.28;;;21.52;52.05
7264;BME280;3673;52.480;13.348;2023-06-10T01:35:58;101169.00;;;21.58;52.04
7264;BME280;3673;52.480;13.348;2023-06-10T01:38:32;101181.72;;;21.49;52.37
7264;BME280;3673;52.480;13.348;2023-06-10T01:41:00;101179.69;;;21.56;52.02
7264;BME280;3673;52.480;13.348;2023-06-10T01:43:28;101176.53;;;21.46;52.13
7264;BME280;3673;52.480;13.348;2023-06-10T01:45:54;101172.88;;;21.26;52.83
7264;BME280;3673;52.480;13.348;2023-06-10T01:48:21;101176.50;;;21.25;52.96
7264;BME280;3673;52.480;13.348;2023-06-10T01:50:48;101171.38;;;21.42;52.51
7264;BME280;3673;52.480;13.348;2023-06-10T01:53:15;101172.09;;;21.24;52.94
7264;BME280;3673;52.480;13.348;2023-06-10T01:55:43;101181.59;;;21.31;52.79
7264;BME280;3673;52.480;13.348;2023-06-10T01:58:09;101176.78;;;20.92;53.64
7264;BME280;3673;52.480;13.348;2023-06-10T02:00:36;101177.84;;;21.12;53.37
7264;BME280;3673;52.480;13.348;2023-06-10T02:03:03;101169.66;;;21.18;53.38
7264;BME280;3673;52.480;13.348;2023-06-10T02:05:30;101174.63;;;21.27;52.98
7264;BME280;3673;52.480;13.348;2023-06-10T02:07:57;101182.22;;;21.14;53.37
7264;BME280;3673;52.480;13.348;2023-06-10T02:10:24;101174.75;;;21.24;53.08
7264;BME280;3673;52.480;13.348;2023-06-10T02:12:53;101181.03;;;20.98;53.67
7264;BME280;3673;52.480;13.348;2023-06-10T02:15:19;101186.22;;;21.01;53.67
7264;BME280;3673;52.480;13.348;2023-06-10T02:17:46;101182.38;;;21.10;53.54
7264;BME280;3673;52.480;13.348;2023-06-10T02:20:14;101194.19;;;21.26;53.05
7264;BME280;3673;52.480;13.348;2023-06-10T02:22:41;101187.94;;;21.02;53.66
7264;BME280;3673;52.480;13.348;2023-06-10T02:25:09;101187.47;;;21.16;53.36
7264;BME280;3673;52.480;13.348;2023-06-10T02:27:36;101180.69;;;21.07;53.42
7264;BME280;3673;52.480;13.348;2023-06-10T02:30:06;101185.09;;;21.08;53.46
7264;BME280;3673;52.480;13.348;2023-06-10T02:32:35;101186.72;;;21.12;53.55
7264;BME280;3673;52.480;13.348;2023-06-10T02:35:02;101191.44;;;21.04;53.63
7264;BME280;3673;52.480;13.348;2023-06-10T02:37:29;101184.38;;;21.03;53.62
7264;BME280;3673;52.480;13.348;2023-06-10T02:39:55;101187.72;;;21.10;53.51
7264;BME280;3673;52.480;13.348;2023-06-10T02:42:22;101188.78;;;20.79;54.30
7264;BME280;3673;52.480;13.348;2023-06-10T02:44:49;101189.13;;;20.70;54.82
7264;BME280;3673;52.480;13.348;2023-06-10T02:47:17;101186.78;;;20.86;54.09
7264;BME280;3673;52.480;13.348;2023-06-10T02:49:44;101192.28;;;20.81;54.23
7264;BME280;3673;52.480;13.348;2023-06-10T02:52:11;101191.13;;;20.64;54.68
7264;BME280;3673;52.480;13.348;2023-06-10T02:54:38;101192.47;;;20.75;54.41
7264;BME280;3673;52.480;13.348;2023-06-10T02:57:05;101191.63;;;20.75;54.41
7264;BME280;3673;52.480;13.348;2023-06-10T02:59:34;101196.06;;;20.74;54.72
7264;BME280;3673;52.480;13.348;2023-06-10T03:02:01;101190.47;;;20.82;54.21
7264;BME280;3673;52.480;13.348;2023-06-10T03:04:29;101193.34;;;20.76;54.31
7264;BME280;3673;52.480;13.348;2023-06-10T03:06:56;101199.78;;;20.69;54.64
7264;BME280;3673;52.480;13.348;2023-06-10T03:09:23;101193.69;;;20.91;54.20
7264;BME280;3673;52.480;13.348;2023-06-10T03:11:50;101189.66;;;20.80;54.28
7264;BME280;3673;52.480;13.348;2023-06-10T03:14:16;101193.75;;;20.88;54.14
7264;BME280;3673;52.480;13.348;2023-06-10T03:16:43;101187.75;;;20.83;54.33
7264;BME280;3673;52.480;13.348;2023-06-10T03:19:11;101195.88;;;20.79;54.48
7264;BME280;3673;52.480;13.348;2023-06-10T03:21:43;101191.94;;;20.66;54.79
7264;BME280;3673;52.480;13.348;2023-06-10T03:24:10;101190.88;;;20.71;54.60
7264;BME280;3673;52.480;13.348;2023-06-10T03:26:37;101192.47;;;20.75;54.51
7264;BME280;3673;52.480;13.348;2023-06-10T03:29:04;101183.81;;;20.70;54.41
7264;BME280;3673;52.480;13.348;2023-06-10T03:31:31;101198.06;;;20.92;54.08
7264;BME280;3673;52.480;13.348;2023-06-10T03:33:58;101206.00;;;20.69;54.57
7264;BME280;3673;52.480;13.348;2023-06-10T03:36:25;101189.53;;;20.83;54.34
7264;BME280;3673;52.480;13.348;2023-06-10T03:38:56;101203.41;;;20.68;54.68
7264;BME280;3673;52.480;13.348;2023-06-10T03:41:23;101205.00;;;20.72;54.62
7264;BME280;3673;52.480;13.348;2023-06-10T03:43:51;101199.28;;;20.84;54.16
7264;BME280;3673;52.480;13.348;2023-06-10T03:46:17;101209.78;;;20.87;54.40
7264;BME280;3673;52.480;13.348;2023-06-10T03:48:44;101206.69;;;20.99;53.94
7264;BME280;3673;52.480;13.348;2023-06-10T03:51:11;101209.56;;;20.93;54.02
7264;BME280;3673;52.480;13.348;2023-06-10T03:53:38;101212.94;;;20.73;54.56
7264;BME280;3673;52.480;13.348;2023-06-10T03:56:06;101208.59;;;20.71;54.67
7264;BME280;3673;52.480;13.348;2023-06-10T03:58:33;101219.28;;;20.69;54.65
7264;BME280;3673;52.480;13.348;2023-06-10T04:00:59;101211.84;;;20.79;54.47
7264;BME280;3673;52.480;13.348;2023-06-10T04:03:26;101214.25;;;20.86;54.35
7264;BME280;3673;52.480;13.348;2023-06-10T04:05:54;101211.59;;;20.86;54.20
7264;BME280;3673;52.480;13.348;2023-06-10T04:08:21;101214.91;;;20.93;54.08
7264;BME280;3673;52.480;13.348;2023-06-10T04:10:48;101220.22;;;20.93;54.31
7264;BME280;3673;52.480;13.348;2023-06-10T04:13:16;101217.06;;;21.06;53.85
7264;BME280;3673;52.480;13.348;2023-06-10T04:15:43;101221.50;;;21.06;53.79
7264;BME280;3673;52.480;13.348;2023-06-10T04:18:09;101216.53;;;20.97;54.11
7264;BME280;3673;52.480;13.348;2023-06-10T04:20:36;101227.16;;;20.97;53.98
7264;BME280;3673;52.480;13.348;2023-06-10T04:23:03;101221.97;;;20.94;54.02
7264;BME280;3673;52.480;13.348;2023-06-10T04:25:30;101217.22;;;21.02;54.04
7264;BME280;3673;52.480;13.348;2023-06-10T04:27:57;101210.97;;;21.03;53.91
7264;BME280;3673;52.480;13.348;2023-06-10T04:30:25;101219.97;;;20.99;54.04
7264;BME280;3673;52.480;13.348;2023-06-10T04:32:52;101218.50;;;21.17;53.47
7264;BME280;3673;52.480;13.348;2023-06-10T04:35:18;101222.34;;;21.08;53.96
7264;BME280;3673;52.480;13.348;2023-06-10T04:37:45;101223.84;;;21.15;53.44
7264;BME280;3673;52.480;13.348;2023-06-10T04:40:12;101231.78;;;21.17;53.53
7264;BME280;3673;52.480;13.348;2023-06-10T04:42:39;101232.41;;;20.98;54.02
7264;BME280;3673;52.480;13.348;2023-06-10T04:45:07;101242.59;;;21.12;53.72
7264;BME280;3673;52.480;13.348;2023-06-10T04:47:36;101239.19;;;21.32;53.00
7264;BME280;3673;52.480;13.348;2023-06-10T04:50:03;101236.72;;;21.27;53.30
7264;BME280;3673;52.480;13.348;2023-06-10T04:52:31;101238.34;;;21.54;52.55
7264;BME280;3673;52.480;13.348;2023-06-10T04:54:59;101242.72;;;21.55;52.21
7264;BME280;3673;52.480;13.348;2023-06-10T04:57:26;101236.00;;;21.22;53.17
7264;BME280;3673;52.480;13.348;2023-06-10T04:59:52;101245.75;;;21.46;52.71
7264;BME280;3673;52.480;13.348;2023-06-10T05:02:19;101247.81;;;21.38;52.63
7264;BME280;3673;52.480;13.348;2023-06-10T05:04:47;101250.91;;;21.51;52.41
7264;BME280;3673;52.480;13.348;2023-06-10T05:07:14;101242.63;;;21.58;52.30
7264;BME280;3673;52.480;13.348;2023-06-10T05:09:41;101254.13;;;21.59;52.23
7264;BME280;3673;52.480;13.348;2023-06-10T05:12:08;101259.34;;;21.62;52.05
7264;BME280;3673;52.480;13.348;2023-06-10T05:14:35;101251.25;;;21.65;52.13
7264;BME280;3673;52.480;13.348;2023-06-10T05:17:02;101247.72;;;21.65;51.98
7264;BME280;3673;52.480;13.348;2023-06-10T05:19:31;101253.97;;;21.40;52.52
7264;BME280;3673;52.480;13.348;2023-06-10T05:21:59;101249.69;;;21.60;52.32
7264;BME280;3673;52.480;13.348;2023-06-10T05:24:26;101247.28;;;21.75;51.73
7264;BME280;3673;52.480;13.348;2023-06-10T05:26:53;101259.53;;;21.81;51.59
7264;BME280;3673;52.480;13.348;2023-06-10T05:29:19;101265.84;;;21.78;51.69
7264;BME280;3673;52.480;13.348;2023-06-10T05:31:46;101274.50;;;21.83;51.66
7264;BME280;3673;52.480;13.348;2023-06-10T05:34:13;101265.78;;;21.80;51.62
7264;BME280;3673;52.480;13.348;2023-06-10T05:36:40;101257.91;;;21.77;51.74
7264;BME280;3673;52.480;13.348;2023-06-10T05:39:09;101256.91;;;22.02;51.57
7264;BME280;3673;52.480;13.348;2023-06-10T05:41:35;101252.94;;;22.13;52.13
7264;BME280;3673;52.480;13.348;2023-06-10T05:44:03;101257.59;;;22.08;52.58
7264;BME280;3673;52.480;13.348;2023-06-10T05:46:30;101259.31;;;22.30;52.01
7264;BME280;3673;52.480;13.348;2023-06-10T05:48:56;101268.19;;;22.31;51.49
7264;BME280;3673;52.480;13.348;2023-06-10T05:51:23;101262.47;;;22.40;51.13
7264;BME280;3673;52.480;13.348;2023-06-10T05:53:51;101256.75;;;22.49;50.75
7264;BME280;3673;52.480;13.348;2023-06-10T05:56:19;101263.34;;;22.40;50.88
7264;BME280;3673;52.480;13.348;2023-06-10T05:58:46;101257.28;;;22.79;49.97
7264;BME280;3673;52.480;13.348;2023-06-10T06:01:12;101262.03;;;22.92;49.42
7264;BME280;3673;52.480;13.348;2023-06-10T06:03:39;101267.72;;;23.05;49.14
7264;BME280;3673;52.480;13.348;2023-06-10T06:06:06;101260.63;;;23.04;49.15
7264;BME280;3673;52.480;13.348;2023-06-10T06:08:33;101263.44;;;23.21;48.83
7264;BME280;3673;52.480;13.348;2023-06-10T06:10:59;101266.84;;;22.84;49.24
7264;BME280;3673;52.480;13.348;2023-06-10T06:13:27;101268.84;;;22.99;48.93
7264;BME280;3673;52.480;13.348;2023-06-10T06:15:54;101269.38;;;23.07;49.03
7264;BME280;3673;52.480;13.348;2023-06-10T06:18:21;101276.50;;;23.07;48.98
7264;BME280;3673;52.480;13.348;2023-06-10T06:20:48;101280.78;;;23.11;48.97
7264;BME280;3673;52.480;13.348;2023-06-10T06:23:15;101278.75;;;23.36;48.52
7264;BME280;3673;52.480;13.348;2023-06-10T06:25:42;101281.03;;;23.45;48.15
7264;BME280;3673;52.480;13.348;2023-06-10T06:28:10;101292.44;;;23.29;48.41
7264;BME280;3673;52.480;13.348;2023-06-10T06:30:38;101287.19;;;23.66;47.89
7264;BME280;3673;52.480;13.348;2023-06-10T06:33:05;101292.69;;;23.63;47.73
7264;BME280;3673;52.480;13.348;2023-06-10T06:35:33;101285.97;;;23.92;47.13
7264;BME280;3673;52.480;13.348;2023-06-10T06:38:00;101291.63;;;24.04;46.88
7264;BME280;3673;52.480;13.348;2023-06-10T06:40:27;101290.22;;;23.96;47.22
7264;BME280;3673;52.480;13.348;2023-06-10T06:42:54;101282.97;;;24.18;46.71
7264;BME280;3673;52.480;13.348;2023-06-10T06:45:21;101287.03;;;24.25;46.56
7264;BME280;3673;52.480;13.348;2023-06-10T06:47:49;101292.13;;;24.31;46.34
7264;BME280;3673;52.480;13.348;2023-06-10T06:50:16;101298.91;;;24.55;45.83
7264;BME280;3673;52.480;13.348;2023-06-10T06:52:44;101301.00;;;24.68;45.54
7264;BME280;3673;52.480;13.348;2023-06-10T06:55:11;101298.38;;;24.66;45.42
7264;BME280;3673;52.480;13.348;2023-06-10T06:57:39;101300.19;;;24.48;45.84
7264;BME280;3673;52.480;13.348;2023-06-10T07:00:07;101301.16;;;24.65;45.64
7264;BME280;3673;52.480;13.348;2023-06-10T07:02:34;101302.84;;;24.84;45.27
7264;BME280;3673;52.480;13.348;2023-06-10T07:05:03;101302.16;;;24.79;45.23
7264;BME280;3673;52.480;13.348;2023-06-10T07:07:30;101300.00;;;25.04;44.58
7264;BME280;3673;52.480;13.348;2023-06-10T07:09:57;101304.88;;;25.14;44.14
7264;BME280;3673;52.480;13.348;2023-06-10T07:12:24;101308.22;;;25.01;44.70
7264;BME280;3673;52.480;13.348;2023-06-10T07:14:51;101305.81;;;25.13;44.54
7264;BME280;3673;52.480;13.348;2023-06-10T07:17:18;101313.47;;;25.03;44.61
7264;BME280;3673;52.480;13.348;2023-06-10T07:19:45;101314.56;;;25.16;44.33
7264;BME280;3673;52.480;13.348;2023-06-10T07:22:14;101306.63;;;25.15;44.46
7264;BME280;3673;52.480;13.348;2023-06-10T07:24:41;101312.19;;;25.44;43.82
7264;BME280;3673;52.480;13.348;2023-06-10T07:27:08;101309.66;;;25.58;43.51
7264;BME280;3673;52.480;13.348;2023-06-10T07:29:35;101312.50;;;25.38;43.39
7264;BME280;3673;52.480;13.348;2023-06-10T07:32:03;101313.88;;;25.63;43.29
7264;BME280;3673;52.480;13.348;2023-06-10T07:34:30;101313.94;;;25.78;42.88
7264;BME280;3673;52.480;13.348;2023-06-10T07:36:56;101320.06;;;25.96;42.93
7264;BME280;3673;52.480;13.348;2023-06-10T07:39:24;101325.03;;;26.19;42.01
7264;BME280;3673;52.480;13.348;2023-06-10T07:41:51;101330.22;;;26.22;41.92
7264;BME280;3673;52.480;13.348;2023-06-10T07:44:19;101327.25;;;26.28;41.78
7264;BME280;3673;52.480;13.348;2023-06-10T07:46:46;101329.03;;;26.28;41.66
7264;BME280;3673;52.480;13.348;2023-06-10T07:49:13;101327.75;;;26.35;41.92
7264;BME280;3673;52.480;13.348;2023-06-10T07:51:40;101329.22;;;26.86;40.87
7264;BME280;3673;52.480;13.348;2023-06-10T07:54:06;101315.53;;;26.90;40.46
7264;BME280;3673;52.480;13.348;2023-06-10T07:56:34;101327.59;;;26.83;40.69
7264;BME280;3673;52.480;13.348;2023-06-10T07:59:01;101321.47;;;27.11;40.39
7264;BME280;3673;52.480;13.348;2023-06-10T08:01:28;101330.09;;;26.86;40.36
7264;BME280;3673;52.480;13.348;2023-06-10T08:03:55;101328.41;;;26.85;40.56
7264;BME280;3673;52.480;13.348;2023-06-10T08:06:22;101322.97;;;26.40;41.41
7264;BME280;3673;52.480;13.348;2023-06-10T08:08:49;101325.19;;;26.16;42.11
7264;BME280;3673;52.480;13.348;2023-06-10T08:11:15;101321.88;;;26.28;42.03
7264;BME280;3673;52.480;13.348;2023-06-10T08:13:43;101326.28;;;26.45;41.76
7264;BME280;3673;52.480;13.348;2023-06-10T08:16:10;101327.81;;;26.33;41.54
7264;BME280;3673;52.480;13.348;2023-06-10T08:18:37;101327.56;;;26.38;41.85
7264;BME280;3673;52.480;13.348;2023-06-10T08:21:04;101328.75;;;26.63;41.15
7264;BME280;3673;52.480;13.348;2023-06-10T08:23:30;101338.69;;;26.77;41.28
7264;BME280;3673;52.480;13.348;2023-06-10T08:25:57;101339.28;;;26.82;40.90
7264;BME280;3673;52.480;13.348;2023-06-10T08:28:24;101337.91;;;26.91;40.98
7264;BME280;3673;52.480;13.348;2023-06-10T08:30:52;101343.81;;;26.66;41.22
7264;BME280;3673;52.480;13.348;2023-06-10T08:33:19;101348.19;;;26.98;41.03
7264;BME280;3673;52.480;13.348;2023-06-10T08:35:45;101340.38;;;27.24;40.29
7264;BME280;3673;52.480;13.348;2023-06-10T08:38:12;101346.69;;;27.52;39.82
7264;BME280;3673;52.480;13.348;2023-06-10T08:40:39;101346.22;;;27.74;39.53
7264;BME280;3673;52.480;13.348;2023-06-10T08:43:08;101345.84;;;27.80;39.04
7264;BME280;3673;52.480;13.348;2023-06-10T08:45:42;101345.16;;;27.91;39.04
7264;BME280;3673;52.480;13.348;2023-06-10T08:48:17;101352.16;;;27.93;39.08
7264;BME280;3673;52.480;13.348;2023-06-10T08:50:46;101350.25;;;28.24;38.30
7264;BME280;3673;52.480;13.348;2023-06-10T08:53:18;101356.16;;;28.43;37.70
7264;BME280;3673;52.480;13.348;2023-06-10T08:55:49;101356.09;;;28.71;37.55
7264;BME280;3673;52.480;13.348;2023-06-10T08:58:17;101352.97;;;28.50;38.09
7264;BME280;3673;52.480;13.348;2023-06-10T09:00:44;101358.63;;;28.46;38.04
7264;BME280;3673;52.480;13.348;2023-06-10T09:03:12;101357.53;;;28.62;37.48
7264;BME280;3673;52.480;13.348;2023-06-10T09:05:41;101348.94;;;28.43;37.93
7264;BME280;3673;52.480;13.348;2023-06-10T09:08:08;101354.47;;;28.69;37.83
7264;BME280;3673;52.480;13.348;2023-06-10T09:10:36;101349.19;;;28.53;37.57
7264;BME280;3673;52.480;13.348;2023-06-10T09:13:03;101346.47;;;28.94;37.13
7264;BME280;3673;52.480;13.348;2023-06-10T09:15:29;101347.34;;;29.07;36.77
7264;BME280;3673;52.480;13.348;2023-06-10T09:17:56;101350.78;;;28.96;36.65
7264;BME280;3673;52.480;13.348;2023-06-10T09:20:23;101344.44;;;28.97;36.65
7264;BME280;3673;52.480;13.348;2023-06-10T09:22:51;101338.78;;;29.27;36.08
7264;BME280;3673;52.480;13.348;2023-06-10T09:25:18;101344.84;;;29.56;35.74
7264;BME280;3673;52.480;13.348;2023-06-10T09:27:46;101337.84;;;29.79;35.33
7264;BME280;3673;52.480;13.348;2023-06-10T09:30:25;101339.44;;;29.81;35.10
7264;BME280;3673;52.480;13.348;2023-06-10T09:32:53;101348.84;;;29.63;35.65
7264;BME280;3673;52.480;13.348;2023-06-10T09:35:22;101343.00;;;29.44;36.04
7264;BME280;3673;52.480;13.348;2023-06-10T09:37:52;101346.31;;;29.22;36.48
7264;BME280;3673;52.480;13.348;2023-06-10T09:40:19;101336.88;;;29.42;35.79
7264;BME280;3673;52.480;13.348;2023-06-10T09:42:46;101336.97;;;29.53;35.96
7264;BME280;3673;52.480;13.348;2023-06-10T09:45:19;101337.97;;;29.52;35.96
7264;BME280;3673;52.480;13.348;2023-06-10T09:47:46;101343.31;;;29.27;36.53
7264;BME280;3673;52.480;13.348;2023-06-10T09:50:13;101354.75;;;29.30;36.43
7264;BME280;3673;52.480;13.348;2023-06-10T09:52:40;101356.72;;;29.28;36.35
7264;BME280;3673;52.480;13.348;2023-06-10T09:55:09;101361.84;;;29.19;36.58
7264;BME280;3673;52.480;13.348;2023-06-10T09:57:36;101361.06;;;28.77;37.08
7264;BME280;3673;52.480;13.348;2023-06-10T10:00:06;101366.88;;;28.71;36.93
7264;BME280;3673;52.480;13.348;2023-06-10T10:02:45;101365.22;;;28.42;37.51
7264;BME280;3673;52.480;13.348;2023-06-10T10:05:14;101363.81;;;28.22;37.72
7264;BME280;3673;52.480;13.348;2023-06-10T10:07:42;101359.19;;;28.24;37.49
7264;BME280;3673;52.480;13.348;2023-06-10T10:10:11;101355.84;;;28.06;37.70
7264;BME280;3673;52.480;13.348;2023-06-10T10:12:39;101360.53;;;28.17;37.31
7264;BME280;3673;52.480;13.348;2023-06-10T10:15:08;101365.84;;;28.19;37.42
7264;BME280;3673;52.480;13.348;2023-06-10T10:17:40;101361.03;;;28.09;37.47
7264;BME280;3673;52.480;13.348;2023-06-10T10:20:14;101360.03;;;28.39;36.94
7264;BME280;3673;52.480;13.348;2023-06-10T10:22:47;101358.03;;;28.28;36.45
7264;BME280;3673;52.480;13.348;2023-06-10T10:25:24;101361.81;;;28.11;36.62
7264;BME280;3673;52.480;13.348;2023-06-10T10:27:57;101356.84;;;28.32;36.19
7264;BME280;3673;52.480;13.348;2023-06-10T10:30:25;101359.66;;;28.31;36.10
7264;BME280;3673;52.480;13.348;2023-06-10T10:32:58;101359.38;;;28.35;36.15
7264;BME280;3673;52.480;13.348;2023-06-10T10:35:31;101356.41;;;28.52;35.68
7264;BME280;3673;52.480;13.348;2023-06-10T10:38:00;101351.66;;;28.29;36.06
7264;BME280;3673;52.480;13.348;2023-06-10T10:40:30;101353.63;;;28.54;35.58
7264;BME280;3673;52.480;13.348;2023-06-10T10:42:58;101354.16;;;28.59;34.63
7264;BME280;3673;52.480;13.348;2023-06-10T10:45:28;101344.88;;;28.24;33.41
7264;BME280;3673;52.480;13.348;2023-06-10T10:47:55;101350.63;;;28.32;33.21
7264;BME280;3673;52.480;13.348;2023-06-10T10:50:23;101346.97;;;28.59;32.34
7264;BME280;3673;52.480;13.348;2023-06-10T10:52:54;101347.69;;;28.76;31.73
7264;BME280;3673;52.480;13.348;2023-06-10T10:55:22;101339.72;;;29.13;30.85
7264;BME280;3673;52.480;13.348;2023-06-10T10:57:56;101337.19;;;28.85;30.80
7264;BME280;3673;52.480;13.348;2023-06-10T11:00:30;101327.38;;;28.57;30.95
7264;BME280;3673;52.480;13.348;2023-06-10T11:03:02;101328.63;;;29.05;30.87
7264;BME280;3673;52.480;13.348;2023-06-10T11:05:36;101317.94;;;29.04;30.42
7264;BME280;3673;52.480;13.348;2023-06-10T11:08:04;101321.06;;;30.11;28.88
7264;BME280;3673;52.480;13.348;2023-06-10T11:10:32;101318.38;;;30.72;28.40
7264;BME280;3673;52.480;13.348;2023-06-10T11:13:06;101308.81;;;30.79;27.80
7264;BME280;3673;52.480;13.348;2023-06-10T11:15:39;101314.84;;;30.82;27.41
7264;BME280;3673;52.480;13.348;2023-06-10T11:18:21;101303.66;;;30.87;27.17
7264;BME280;3673;52.480;13.348;2023-06-10T11:20:57;101300.56;;;30.80;27.50
7264;BME280;3673;52.480;13.348;2023-06-10T11:23:43;101296.50;;;30.75;27.74
7264;BME280;3673;52.480;13.348;2023-06-10T11:26:29;101298.84;;;30.79;27.70
7264;BME280;3673;52.480;13.348;2023-06-10T11:29:08;101300.53;;;30.69;27.79
7264;BME280;3673;52.480;13.348;2023-06-10T11:31:46;101302.53;;;30.78;28.03
7264;BME280;3673;52.480;13.348;2023-06-10T11:34:20;101291.88;;;31.23;27.45
7264;BME280;3673;52.480;13.348;2023-06-10T11:36:49;101304.00;;;32.19;26.39
7264;BME280;3673;52.480;13.348;2023-06-10T11:39:19;101294.53;;;33.08;25.21
7264;BME280;3673;52.480;13.348;2023-06-10T11:41:46;101285.91;;;33.66;24.45
7264;BME280;3673;52.480;13.348;2023-06-10T11:44:14;101285.50;;;33.80;24.21
7264;BME280;3673;52.480;13.348;2023-06-10T11:46:41;101294.59;;;34.78;23.17
7264;BME280;3673;52.480;13.348;2023-06-10T11:49:09;101281.47;;;35.48;22.28
7264;BME280;3673;52.480;13.348;2023-06-10T11:51:37;101290.81;;;35.83;21.94
7264;BME280;3673;52.480;13.348;2023-06-10T11:54:08;101289.91;;;36.19;21.19
7264;BME280;3673;52.480;13.348;2023-06-10T11:56:36;101280.44;;;35.86;21.00
7264;BME280;3673;52.480;13.348;2023-06-10T11:59:04;101284.53;;;36.27;20.63
7264;BME280;3673;52.480;13.348;2023-06-10T12:01:36;101284.78;;;36.16;20.65
7264;BME280;3673;52.480;13.348;2023-06-10T12:04:05;101274.19;;;36.03;20.99
7264;BME280;3673;52.480;13.348;2023-06-10T12:06:40;101274.81;;;36.42;20.45
7264;BME280;3673;52.480;13.348;2023-06-10T12:09:13;101278.09;;;36.46;21.00
7264;BME280;3673;52.480;13.348;2023-06-10T12:11:40;101279.09;;;36.45;21.63
7264;BME280;3673;52.480;13.348;2023-06-10T12:14:07;101284.91;;;36.59;21.83
7264;BME280;3673;52.480;13.348;2023-06-10T12:16:35;101285.19;;;36.56;22.38
7264;BME280;3673;52.480;13.348;2023-06-10T12:19:03;101291.53;;;35.38;24.37
7264;BME280;3673;52.480;13.348;2023-06-10T12:21:33;101287.78;;;35.86;24.15
7264;BME280;3673;52.480;13.348;2023-06-10T12:24:06;101295.84;;;36.05;23.10
7264;BME280;3673;52.480;13.348;2023-06-10T12:26:44;101282.31;;;35.49;23.57
7264;BME280;3673;52.480;13.348;2023-06-10T12:29:22;101281.81;;;35.73;23.59
7264;BME280;3673;52.480;13.348;2023-06-10T12:31:57;101285.84;;;36.23;22.49
7264;BME280;3673;52.480;13.348;2023-06-10T12:34:36;101286.25;;;35.74;22.46
7264;BME280;3673;52.480;13.348;2023-06-10T12:37:05;101279.25;;;36.26;21.61
7264;BME280;3673;52.480;13.348;2023-06-10T12:39:32;101283.84;;;36.25;21.48
7264;BME280;3673;52.480;13.348;2023-06-10T12:42:00;101284.06;;;36.32;21.44
7264;BME280;3673;52.480;13.348;2023-06-10T12:44:38;101269.28;;;36.52;21.76
7264;BME280;3673;52.480;13.348;2023-06-10T12:47:11;101270.38;;;36.41;21.95
7264;BME280;3673;52.480;13.348;2023-06-10T12:49:39;101263.50;;;36.37;22.10
7264;BME280;3673;52.480;13.348;2023-06-10T12:52:06;101257.59;;;36.77;21.92
7264;BME280;3673;52.480;13.348;2023-06-10T12:54:34;101262.91;;;36.61;22.25
7264;BME280;3673;52.480;13.348;2023-06-10T12:57:02;101254.03;;;36.59;22.32
7264;BME280;3673;52.480;13.348;2023-06-10T12:59:28;101245.41;;;37.07;22.02
7264;BME280;3673;52.480;13.348;2023-06-10T13:01:57;101242.00;;;37.13;21.81
7264;BME280;3673;52.480;13.348;2023-06-10T13:04:25;101239.41;;;37.03;22.14
7264;BME280;3673;52.480;13.348;2023-06-10T13:06:52;101241.47;;;36.31;22.94